KBIF/BIF METAR and TAF weather

Enter ICAO airport designator
Station Type Date Time Source
KBIF METAR 2019/06/18 16:58 UTC NOAA

KBIF 181658Z AUTO 00000KT 10SM CLR 28/08 A3003 RMK AO2 SLP099 T02810082 $


Station Type Date Time Source
KBIF Decoded METAR 2019/06/18 16:58 UTC NOAA

Biggs Army Air Field / Ft. Bliss, TX, United States (KBIF) 31-51N 106-23W
Jun 18, 2019 - 12:58 PM EDT / 2019.06.18 1658 UTC
Wind: Calm:0
Visibility: 10 mile(s):0
Sky conditions: clear
Temperature: 82.6 F (28.1 C)
Dew Point: 46.8 F (8.2 C)
Relative Humidity: 28%
Pressure (altimeter): 30.03 in. Hg (1016 hPa)
ob: KBIF 181658Z AUTO 00000KT 10SM CLR 28/08 A3003 RMK AO2 SLP099 T02810082
cycle: 17

Station Type Date Time Source
KBIF TAF 2019/06/18 14:01 UTC NOAA

TAF KBIF 181400Z 1814/1920 VRB06KT 9999 SKC QNH3002INS
BECMG 1815/1816 27012KT 9999 SKC QNH3004INS
BECMG 1817/1818 27012G18KT 9999 SKC QNH2991INS
BECMG 1902/1903 27006KT 9999 SKC QNH2996INS
BECMG 1917/1918 27010G15KT 9999 SKC QNH2996INS TX36/1821Z TN16/1911Z

Example: see airport list